Terminal Aerodrome Forecast
Issued by NWS

Home | Current Version | Previous Version | Graphics & Text | Print | Product List | Glossary On
Versions: 1 2 3 4 5 6 7 8 9 10 11 12 13 14 15 16 17 18 19 20 21 22 23 24 25 26 27 28 29 30 31 32
000
FTUS43 KLOT 231700
TAFDPA
TAF
KDPA 231736Z 2318/2418 20011KT P6SM FEW120 BKN200
     FM232300 19008KT P6SM VCSH SCT035 OVC060
     FM240100 22005KT P6SM BKN025 OVC040
     FM240300 21006KT P6SM SCT010 BKN015
     FM240900 VRB03KT 3SM BR SCT010 BKN015
     FM241200 VRB03KT 1SM BR SCT010 BKN015
     FM241400 23005KT P6SM SCT010 BKN020=

USA.gov is the U.S. government's official web portal to all federal, state and local government web resources and services.